CDT,Max TemperatureF,Mean TemperatureF,Min TemperatureF,Max Dew PointF,MeanDew PointF,Min DewpointF,Max Humidity, Mean Humidity, Min Humidity, Max Sea Level PressureIn, Mean Sea Level PressureIn, Min Sea Level PressureIn, Max VisibilityMiles, Mean VisibilityMiles, Min VisibilityMiles, Max Wind SpeedMPH, Mean Wind SpeedMPH, Max Gust SpeedMPH,PrecipitationIn, CloudCover, Events, WindDirDegrees
2012-10-1,78,66,55,54,50,45,88,60,30,29.90,29.85,29.81,10,10,10,21,8,25,0.00,0,,345
2012-10-2,73,62,50,46,44,36,82,56,25,29.98,29.93,29.89,10,10,10,15,9,20,0.00,0,,346
2012-10-3,78,61,44,50,45,43,93,61,28,29.99,29.95,29.90,10,10,7,17,4,23,0.00,0,,178
2012-10-4,69,58,48,55,49,43,94,68,46,30.23,30.13,29.98,10,10,7,20,10,22,0.00,5,Rain,342
2012-10-5,53,46,37,45,40,32,93,73,44,30.31,30.22,30.19,10,10,10,23,14,28,0.00,5,Rain-Thunderstorm,29
2012-10-6,46,42,37,41,34,27,93,71,49,30.35,30.31,30.27,10,10,10,15,6,21,0.00,6,Rain,5
2012-10-7,55,44,32,32,29,23,93,61,29,30.35,30.28,30.19,10,10,10,9,4,,0.00,1,,306
2012-10-8,62,46,30,36,33,30,100,63,32,30.21,30.12,30.01,10,10,10,17,8,23,0.00,0,,190
2012-10-9,64,54,44,52,45,36,87,69,55,30.13,29.97,29.90,10,10,7,20,10,26,0.00,4,,173
2012-10-10,64,50,35,43,33,28,93,54,26,30.31,30.21,30.14,10,10,7,12,6,,0.00,0,,68
2012-10-11,77,64,51,63,51,36,83,62,51,30.15,30.08,30.00,10,10,2,20,6,24,0.00,7,,174
2012-10-12,69,64,59,64,61,57,100,92,78,30.22,30.14,30.06,10,7,2,25,8,26,0.00,6,Rain-Thunderstorm,86
2012-10-13,71,66,62,68,64,61,100,93,88,30.03,29.86,29.64,10,7,2,39,13,50,0.00,5,Rain-Thunderstorm,173
2012-10-14,73,62,51,63,50,41,94,67,31,30.06,29.90,29.64,10,10,10,21,12,28,0.00,0,,277
2012-10-15,82,64,46,52,47,43,93,60,25,30.05,29.96,29.86,10,10,10,13,5,18,0.00,0,,213
2012-10-16,80,68,55,52,49,45,82,56,30,29.86,29.71,29.57,10,10,10,23,12,30,0.00,0,,180
2012-10-17,69,60,50,63,49,32,94,65,27,29.78,29.58,29.44,10,10,10,23,12,34,0.00,3,Rain,274
2012-10-18,64,55,46,34,27,23,62,36,21,29.86,29.80,29.77,10,9,5,29,13,38,0.00,2,,283
2012-10-19,62,52,41,41,34,28,93,49,34,29.89,29.84,29.78,10,10,10,24,12,31,0.00,0,,297
2012-10-20,77,57,37,54,43,36,93,62,29,29.86,29.79,29.70,10,10,10,12,3,,0.00,0,,165
2012-10-21,80,68,57,68,62,52,94,75,61,29.79,29.76,29.72,10,10,7,21,10,28,0.00,3,,156
2012-10-22,80,74,68,68,64,61,88,76,58,29.87,29.83,29.77,10,10,10,23,16,32,0.00,2,Rain-Thunderstorm,182
2012-10-23,80,74,68,66,65,63,94,77,58,29.86,29.82,29.75,10,10,10,28,16,33,0.00,4,,182
2012-10-24,82,73,64,64,63,59,94,72,51,29.87,29.81,29.73,10,10,10,25,16,38,0.00,0,,180
2012-10-25,69,55,41,63,47,34,93,77,62,30.26,29.97,29.68,10,10,4,26,17,33,0.00,5,Rain,343
2012-10-26,46,40,33,34,30,28,93,70,50,30.45,30.38,30.27,10,10,10,21,13,29,0.00,2,,10
2012-10-27,50,39,28,30,29,27,93,72,43,30.41,30.33,30.23,10,9,0,12,6,,0.00,0,,28
2012-10-28,53,40,28,32,29,27,93,66,35,30.35,30.28,30.23,10,9,0,7,3,,0.00,1,,67
2012-10-29,60,46,32,32,31,28,93,60,31,30.32,30.23,30.09,10,10,10,14,4,17,0.00,2,,160
2012-10-30,69,53,37,39,35,32,81,59,28,30.09,29.98,29.90,10,9,2,14,4,14,0.00,1,,105
2012-10-31,64,48,33,36,33,28,93,58,30,30.10,30.03,29.97,10,10,4,9,4,,0.00,0,,19